Time;durP1;ratioP1;P1;durP2;ratioP2;P2;SDS_P1;SDS_P2;PMS_P1;PMS_P2;Temp;Humidity;BMP_temperature;BMP_pressure;BME280_temperature;BME280_humidity;BME280_pressure;Samples;Min_cycle;Max_cycle;Signal;HPM_P1;HPM_P2
2022/07/02 00:02:21;;;;;;;;;;;22.60;69.80;;;;;;5022639;28;20334;-75
2022/07/02 00:04:49;;;;;;;;;;;22.60;69.90;;;;;;5027800;28;20024;-75
2022/07/02 00:07:15;;;;;;;;;;;22.60;69.80;;;;;;5026073;28;19953;-76
2022/07/02 00:09:41;;;;;;;;;;;22.50;70.20;;;;;;5023059;28;19964;-76
2022/07/02 00:12:08;;;;;;;;;;;22.50;69.90;;;;;;5028194;28;19999;-76
2022/07/02 00:14:33;;;;;;;;;;;22.50;70.20;;;;;;5026876;28;19913;-75
2022/07/02 00:17:00;;;;;;;;;;;22.50;70.10;;;;;;5029174;28;19921;-76
2022/07/02 00:19:26;;;;;;;;;;;22.50;70.20;;;;;;5030130;28;20004;-76
2022/07/02 00:21:53;;;;;;;;;;;22.50;70.10;;;;;;5027748;28;20355;-76
2022/07/02 00:24:19;;;;;;;;;;;22.40;70.40;;;;;;5027658;28;19917;-77
2022/07/02 00:26:49;;;;;;;;;;;22.30;70.40;;;;;;5027820;28;19920;-76
2022/07/02 00:29:20;;;;;;;;;;;22.30;70.60;;;;;;5027702;28;19917;-74
2022/07/02 00:31:47;;;;;;;;;;;22.30;70.50;;;;;;5030326;28;19913;-74
2022/07/02 00:34:13;;;;;;;;;;;22.30;70.80;;;;;;5030116;28;20363;-75
2022/07/02 00:36:39;;;;;;;;;;;22.30;70.90;;;;;;5022475;28;19953;-74
2022/07/02 00:39:05;;;;;;;;;;;22.30;71.00;;;;;;5022990;28;19913;-75
2022/07/02 00:41:32;;;;;;;;;;;22.30;70.90;;;;;;5031504;28;20279;-75
2022/07/02 00:43:57;;;;;;;;;;;22.30;71.10;;;;;;5032060;28;20373;-75
2022/07/02 00:46:24;;;;;;;;;;;22.20;71.10;;;;;;5035170;28;19913;-75
2022/07/02 00:48:50;;;;;;;;;;;22.20;71.20;;;;;;5033664;28;19957;-75
2022/07/02 00:51:16;;;;;;;;;;;22.20;71.40;;;;;;5033931;28;19913;-75
2022/07/02 00:53:41;;;;;;;;;;;22.20;71.40;;;;;;5034005;28;19936;-75
2022/07/02 00:56:07;;;;;;;;;;;22.20;71.50;;;;;;5032855;28;19928;-75
2022/07/02 00:58:33;;;;;;;;;;;22.10;71.90;;;;;;5030423;28;20378;-75
2022/07/02 01:00:59;;;;;;;;;;;22.10;71.70;;;;;;5033957;28;19935;-75
2022/07/02 01:03:25;;;;;;;;;;;22.10;71.90;;;;;;5034247;28;20366;-75
2022/07/02 01:05:51;;;;;;;;;;;22.10;72.10;;;;;;5033640;28;19917;-75
2022/07/02 01:11:04;;;;;;;;;;;22.10;72.40;;;;;;4976303;28;19965;-76
2022/07/02 01:13:32;;;;;;;;;;;22.10;72.40;;;;;;4978493;28;20486;-76
2022/07/02 01:15:57;;;;;;;;;;;22.00;72.40;;;;;;4981557;28;19996;-75
2022/07/02 01:18:23;;;;;;;;;;;22.00;72.40;;;;;;4980740;28;20001;-75
2022/07/02 01:20:48;;;;;;;;;;;22.10;72.50;;;;;;4980459;28;19949;-76
2022/07/02 01:23:14;;;;;;;;;;;22.00;72.60;;;;;;4978160;28;19917;-75
2022/07/02 01:25:40;;;;;;;;;;;21.90;72.60;;;;;;4976475;28;19910;-76
2022/07/02 01:28:05;;;;;;;;;;;21.90;73.10;;;;;;4980859;28;19957;-76
2022/07/02 01:30:31;;;;;;;;;;;22.00;73.10;;;;;;4980852;28;19921;-75
2022/07/02 01:32:56;;;;;;;;;;;21.90;73.20;;;;;;4981140;28;19914;-75
2022/07/02 01:35:22;;;;;;;;;;;21.90;73.20;;;;;;4978064;28;19952;-75
2022/07/02 01:37:49;;;;;;;;;;;21.90;73.30;;;;;;4990795;28;19913;-75
2022/07/02 01:40:15;;;;;;;;;;;21.80;73.40;;;;;;4979417;28;19929;-76
2022/07/02 01:42:41;;;;;;;;;;;21.80;73.70;;;;;;4980508;28;19930;-76
2022/07/02 01:45:06;;;;;;;;;;;21.70;73.80;;;;;;4980565;28;19922;-75
2022/07/02 01:47:32;;;;;;;;;;;21.70;73.70;;;;;;4974099;28;19913;-75
2022/07/02 01:49:57;;;;;;;;;;;21.70;73.60;;;;;;5032892;28;19921;-76
2022/07/02 01:52:23;;;;;;;;;;;21.80;73.10;;;;;;5019273;28;19922;-75
2022/07/02 01:54:49;;;;;;;;;;;21.60;73.40;;;;;;5031378;28;19913;-75
2022/07/02 01:57:14;;;;;;;;;;;21.70;73.80;;;;;;5032795;28;19922;-75
2022/07/02 01:59:40;;;;;;;;;;;21.50;73.50;;;;;;5032960;28;19917;-75
2022/07/02 02:02:06;;;;;;;;;;;21.60;73.90;;;;;;5020580;28;19919;-74
2022/07/02 02:04:32;;;;;;;;;;;21.60;74.00;;;;;;5027894;28;19914;-75
2022/07/02 02:06:58;;;;;;;;;;;21.60;73.70;;;;;;5032210;28;19992;-74
2022/07/02 02:09:24;;;;;;;;;;;21.50;73.70;;;;;;5032189;28;20420;-75
2022/07/02 02:11:49;;;;;;;;;;;21.50;74.10;;;;;;5032633;28;19936;-75
2022/07/02 02:14:15;;;;;;;;;;;21.50;74.20;;;;;;5032460;28;19913;-75
2022/07/02 02:16:40;;;;;;;;;;;21.50;74.20;;;;;;5033169;28;20436;-75
2022/07/02 02:19:06;;;;;;;;;;;21.30;74.10;;;;;;5032537;28;19910;-75
2022/07/02 02:21:32;;;;;;;;;;;21.30;74.50;;;;;;5032306;28;20438;-75
2022/07/02 02:23:58;;;;;;;;;;;21.30;74.60;;;;;;5032321;28;19956;-75
2022/07/02 02:26:24;;;;;;;;;;;21.40;74.40;;;;;;5032273;28;19996;-75
2022/07/02 02:28:49;;;;;;;;;;;21.40;74.40;;;;;;5033068;28;19909;-74
2022/07/02 02:31:15;;;;;;;;;;;21.30;74.20;;;;;;5019708;28;19964;-75
2022/07/02 02:33:41;;;;;;;;;;;21.30;74.70;;;;;;5028622;28;19921;-75
2022/07/02 02:36:07;;;;;;;;;;;21.30;74.70;;;;;;5029890;28;20301;-75
2022/07/02 02:38:36;;;;;;;;;;;21.30;74.70;;;;;;5020301;28;19914;-74
2022/07/02 02:41:06;;;;;;;;;;;21.30;74.60;;;;;;5032082;28;19921;-75
2022/07/02 02:43:33;;;;;;;;;;;21.20;74.70;;;;;;5032999;28;19916;-75
2022/07/02 02:45:59;;;;;;;;;;;21.20;74.70;;;;;;5031779;28;19966;-75
2022/07/02 02:48:24;;;;;;;;;;;21.20;75.00;;;;;;5031532;28;19923;-74
2022/07/02 02:50:50;;;;;;;;;;;21.20;74.90;;;;;;5031947;28;19917;-74
2022/07/02 02:53:15;;;;;;;;;;;21.20;74.90;;;;;;5031905;28;20370;-75
2022/07/02 02:55:41;;;;;;;;;;;21.20;74.80;;;;;;5032391;28;19913;-75
2022/07/02 02:58:07;;;;;;;;;;;21.20;74.80;;;;;;5032344;28;20325;-74
2022/07/02 03:00:32;;;;;;;;;;;21.20;74.60;;;;;;5030113;28;20378;-75
2022/07/02 03:02:58;;;;;;;;;;;21.10;74.30;;;;;;5031121;28;19936;-75
2022/07/02 03:05:24;;;;;;;;;;;21.20;74.20;;;;;;5029937;28;20024;-75
2022/07/02 03:07:50;;;;;;;;;;;21.30;74.10;;;;;;5029947;28;19913;-75
2022/07/02 03:10:15;;;;;;;;;;;21.30;73.90;;;;;;5019188;28;20397;-75
2022/07/02 03:12:41;;;;;;;;;;;21.30;74.10;;;;;;5028321;28;19920;-75
2022/07/02 03:15:07;;;;;;;;;;;21.30;73.90;;;;;;5019487;28;20363;-75
2022/07/02 03:17:32;;;;;;;;;;;21.20;74.00;;;;;;5018900;28;19929;-75
2022/07/02 03:19:58;;;;;;;;;;;21.20;74.30;;;;;;5031283;28;19922;-75
2022/07/02 03:22:24;;;;;;;;;;;21.20;74.20;;;;;;5032154;28;19967;-75
2022/07/02 03:24:49;;;;;;;;;;;21.30;74.20;;;;;;5031756;28;19913;-75
2022/07/02 03:27:15;;;;;;;;;;;21.30;74.00;;;;;;5031544;28;19952;-74
2022/07/02 03:29:40;;;;;;;;;;;21.20;74.10;;;;;;5031769;28;19949;-75
2022/07/02 03:32:06;;;;;;;;;;;21.20;74.00;;;;;;5031101;28;20400;-75
2022/07/02 03:34:32;;;;;;;;;;;21.30;74.10;;;;;;5032142;28;19916;-74
2022/07/02 03:36:57;;;;;;;;;;;21.20;74.20;;;;;;5031271;28;19921;-75
2022/07/02 03:39:23;;;;;;;;;;;21.20;74.20;;;;;;5031577;28;20011;-75
2022/07/02 03:41:48;;;;;;;;;;;21.10;74.40;;;;;;5031887;28;19921;-75
2022/07/02 03:44:14;;;;;;;;;;;21.20;74.30;;;;;;5031538;28;19938;-74
2022/07/02 03:46:39;;;;;;;;;;;21.20;74.50;;;;;;5031564;28;20396;-75
2022/07/02 03:49:05;;;;;;;;;;;21.20;74.50;;;;;;5019849;28;20448;-74
2022/07/02 03:51:30;;;;;;;;;;;21.10;74.40;;;;;;5025669;28;19917;-75
2022/07/02 03:53:56;;;;;;;;;;;21.10;74.40;;;;;;5031461;28;19913;-74
2022/07/02 03:56:21;;;;;;;;;;;21.10;74.70;;;;;;5024322;28;19999;-74
2022/07/02 03:58:47;;;;;;;;;;;21.10;74.80;;;;;;5031283;28;19909;-75
2022/07/02 04:01:13;;;;;;;;;;;21.00;74.50;;;;;;5031251;28;19909;-75
2022/07/02 04:03:38;;;;;;;;;;;21.00;74.80;;;;;;5031325;28;20390;-74
2022/07/02 04:06:04;;;;;;;;;;;21.00;75.20;;;;;;5030348;28;20298;-75
2022/07/02 04:08:29;;;;;;;;;;;21.00;74.90;;;;;;5031165;28;19913;-74
2022/07/02 04:10:55;;;;;;;;;;;20.90;75.10;;;;;;5030610;28;19956;-75
2022/07/02 04:13:20;;;;;;;;;;;20.90;75.80;;;;;;5031494;28;19963;-75
2022/07/02 04:15:46;;;;;;;;;;;20.90;75.50;;;;;;5031894;28;19921;-75
2022/07/02 04:18:12;;;;;;;;;;;20.90;75.90;;;;;;5035021;28;19917;-74
2022/07/02 04:20:37;;;;;;;;;;;20.80;75.70;;;;;;5035173;28;19917;-74
2022/07/02 04:23:03;;;;;;;;;;;20.90;76.00;;;;;;5035013;28;19953;-74
2022/07/02 04:25:28;;;;;;;;;;;20.90;76.30;;;;;;5035153;28;20290;-74
2022/07/02 04:27:54;;;;;;;;;;;20.80;76.00;;;;;;5024895;28;19913;-74
2022/07/02 04:30:20;;;;;;;;;;;20.80;76.20;;;;;;5028320;28;19913;-75
2022/07/02 04:32:45;;;;;;;;;;;20.80;76.30;;;;;;5034897;28;19952;-75
2022/07/02 04:35:11;;;;;;;;;;;20.80;76.60;;;;;;5034690;28;19917;-75
2022/07/02 04:37:36;;;;;;;;;;;20.70;77.10;;;;;;5035092;28;19971;-74
2022/07/02 04:40:02;;;;;;;;;;;20.70;77.40;;;;;;5034544;28;20035;-75
2022/07/02 04:42:29;;;;;;;;;;;20.70;77.70;;;;;;5029408;28;19921;-74
2022/07/02 04:44:55;;;;;;;;;;;20.70;78.00;;;;;;5021578;28;20007;-75
2022/07/02 04:47:21;;;;;;;;;;;20.70;77.90;;;;;;5020238;28;20011;-74
2022/07/02 04:49:46;;;;;;;;;;;20.60;78.60;;;;;;5034291;28;20374;-75
2022/07/02 04:52:12;;;;;;;;;;;20.60;78.20;;;;;;5034595;28;20011;-74
2022/07/02 04:54:38;;;;;;;;;;;20.70;77.80;;;;;;5034112;28;19920;-75
2022/07/02 04:57:03;;;;;;;;;;;20.70;77.80;;;;;;5034249;28;19925;-76
2022/07/02 04:59:29;;;;;;;;;;;20.70;78.40;;;;;;5033253;28;20337;-75
2022/07/02 05:01:55;;;;;;;;;;;20.70;78.20;;;;;;5034322;28;20389;-75
2022/07/02 05:04:20;;;;;;;;;;;20.80;78.60;;;;;;5033866;28;20306;-74
2022/07/02 05:06:46;;;;;;;;;;;20.70;78.20;;;;;;5025039;28;19914;-74
2022/07/02 05:09:11;;;;;;;;;;;20.70;77.70;;;;;;5026939;28;20000;-74
2022/07/02 05:11:37;;;;;;;;;;;20.80;77.70;;;;;;5033793;28;19913;-74
2022/07/02 05:14:02;;;;;;;;;;;20.80;77.90;;;;;;5033656;28;19917;-74
2022/07/02 05:16:28;;;;;;;;;;;20.90;78.80;;;;;;5034796;28;20325;-75
2022/07/02 05:18:54;;;;;;;;;;;20.90;78.30;;;;;;5033822;28;19921;-75
2022/07/02 05:21:19;;;;;;;;;;;20.90;78.10;;;;;;5034139;28;19913;-75
2022/07/02 05:23:45;;;;;;;;;;;21.00;78.30;;;;;;5033915;28;19959;-75
2022/07/02 05:26:11;;;;;;;;;;;21.00;78.20;;;;;;5033662;28;19972;-74
2022/07/02 05:28:36;;;;;;;;;;;21.10;78.40;;;;;;5033542;28;20002;-74
2022/07/02 05:31:02;;;;;;;;;;;21.10;78.30;;;;;;5033498;28;19913;-74
2022/07/02 05:33:27;;;;;;;;;;;21.00;77.70;;;;;;5033382;28;19913;-75
2022/07/02 05:35:53;;;;;;;;;;;21.20;78.00;;;;;;5029125;28;19917;-75
2022/07/02 05:38:19;;;;;;;;;;;21.10;78.60;;;;;;5033638;28;19999;-75
2022/07/02 05:40:44;;;;;;;;;;;21.20;78.50;;;;;;5033707;28;19924;-74
2022/07/02 05:43:10;;;;;;;;;;;21.20;79.10;;;;;;5033705;28;19921;-74
2022/07/02 05:45:35;;;;;;;;;;;21.20;77.80;;;;;;5025456;28;19968;-74
2022/07/02 05:48:01;;;;;;;;;;;21.30;77.30;;;;;;5024537;28;19967;-74
2022/07/02 05:50:27;;;;;;;;;;;21.30;77.40;;;;;;5033248;28;19996;-74
2022/07/02 05:52:52;;;;;;;;;;;21.40;77.20;;;;;;5033341;28;19916;-75
2022/07/02 05:55:18;;;;;;;;;;;21.40;77.10;;;;;;5018458;28;20000;-74
2022/07/02 05:57:44;;;;;;;;;;;21.50;76.80;;;;;;5030051;28;19921;-75
2022/07/02 06:00:10;;;;;;;;;;;21.50;77.00;;;;;;5032970;28;19920;-75
2022/07/02 06:02:35;;;;;;;;;;;21.50;76.50;;;;;;5032989;28;19959;-74
2022/07/02 06:07:38;;;;;;;;;;;21.50;76.10;;;;;;5032832;28;20298;-74
2022/07/02 06:07:47;;;;;;;;;;;21.50;75.30;;;;;;5030814;28;19913;-74
2022/07/02 06:10:18;;;;;;;;;;;21.50;75.60;;;;;;5032752;28;19909;-75
2022/07/02 06:12:51;;;;;;;;;;;21.60;75.20;;;;;;5032383;28;19914;-72
2022/07/02 06:15:17;;;;;;;;;;;21.60;75.00;;;;;;5032672;28;20404;-71
2022/07/02 06:17:42;;;;;;;;;;;21.70;75.30;;;;;;5031394;28;19928;-71
2022/07/02 06:20:09;;;;;;;;;;;21.80;75.80;;;;;;5017018;28;19913;-71
2022/07/02 06:22:34;;;;;;;;;;;21.80;75.80;;;;;;5018238;28;19920;-71
2022/07/02 06:25:00;;;;;;;;;;;21.90;75.40;;;;;;5021071;28;20337;-71
2022/07/02 06:27:25;;;;;;;;;;;21.90;75.70;;;;;;5027539;28;19959;-71
2022/07/02 06:29:51;;;;;;;;;;;21.90;75.10;;;;;;5032313;28;19913;-71
2022/07/02 06:32:17;;;;;;;;;;;22.00;74.50;;;;;;5032526;28;19913;-71
2022/07/02 06:34:43;;;;;;;;;;;22.00;74.50;;;;;;5031078;28;20374;-71
2022/07/02 06:37:08;;;;;;;;;;;22.10;74.30;;;;;;5032868;28;19928;-71
2022/07/02 06:39:34;;;;;;;;;;;22.10;73.70;;;;;;5021451;28;19913;-71
2022/07/02 06:44:45;;;;;;;;;;;22.20;73.70;;;;;;5032925;28;19919;-71
2022/07/02 06:47:10;;;;;;;;;;;22.20;73.80;;;;;;5032238;28;20293;-74
2022/07/02 06:49:36;;;;;;;;;;;22.20;73.60;;;;;;5032912;28;19980;-73
2022/07/02 06:52:02;;;;;;;;;;;22.20;73.40;;;;;;5032237;28;20389;-73
2022/07/02 06:54:27;;;;;;;;;;;22.30;73.60;;;;;;5024259;28;19996;-66
2022/07/02 06:56:53;;;;;;;;;;;22.40;73.40;;;;;;5021441;28;19921;-66
2022/07/02 06:59:18;;;;;;;;;;;22.30;73.70;;;;;;5031906;28;19913;-68
2022/07/02 07:01:44;;;;;;;;;;;22.40;73.70;;;;;;5028996;28;19972;-68
2022/07/02 07:04:10;;;;;;;;;;;22.30;73.80;;;;;;5018851;28;19936;-67
2022/07/02 07:06:36;;;;;;;;;;;22.40;75.20;;;;;;5027876;28;19909;-69
2022/07/02 07:09:02;;;;;;;;;;;;;;;;;;5030877;28;20011;-71
2022/07/02 07:11:27;;;;;;;;;;;22.70;79.50;;;;;;5031400;28;20361;-72
2022/07/02 07:13:53;;;;;;;;;;;22.70;75.60;;;;;;5031265;28;19944;-71
2022/07/02 07:16:18;;;;;;;;;;;22.90;90.80;;;;;;5026223;28;19920;-71
2022/07/02 07:19:17;;;;;;;;;;;22.80;91.40;;;;;;5031405;28;20007;-71
2022/07/02 07:21:37;;;;;;;;;;;22.90;92.40;;;;;;5028354;28;20301;-71
2022/07/02 07:24:03;;;;;;;;;;;23.00;92.30;;;;;;5030026;28;20055;-71
2022/07/02 07:26:29;;;;;;;;;;;23.00;90.60;;;;;;5031771;28;19948;-70
2022/07/02 07:28:54;;;;;;;;;;;23.10;88.10;;;;;;5030915;28;19916;-71
2022/07/02 07:31:20;;;;;;;;;;;23.10;82.70;;;;;;5032092;28;20052;-70
2022/07/02 07:33:46;;;;;;;;;;;23.20;92.20;;;;;;5031721;28;19924;-70
2022/07/02 07:36:12;;;;;;;;;;;23.30;93.20;;;;;;5024775;28;19924;-70
2022/07/02 07:38:38;;;;;;;;;;;23.40;92.50;;;;;;5024822;28;20271;-70
2022/07/02 07:41:03;;;;;;;;;;;23.40;91.60;;;;;;5015688;28;20300;-71
2022/07/02 07:43:29;;;;;;;;;;;23.50;93.50;;;;;;5017534;28;19909;-67
2022/07/02 07:45:55;;;;;;;;;;;23.60;93.90;;;;;;5030131;28;20370;-67
2022/07/02 07:48:23;;;;;;;;;;;23.60;97.70;;;;;;5018298;28;20020;-67
2022/07/02 07:50:48;;;;;;;;;;;23.60;94.10;;;;;;5021755;28;20392;-71
2022/07/02 07:53:17;;;;;;;;;;;23.70;80.20;;;;;;5030941;28;20015;-72
2022/07/02 07:55:42;;;;;;;;;;;23.60;82.30;;;;;;5035944;28;19910;-73
2022/07/02 07:58:08;;;;;;;;;;;23.60;83.60;;;;;;5035517;28;19913;-73
2022/07/02 08:00:34;;;;;;;;;;;;;;;;;;5034325;28;19948;-64
2022/07/02 08:02:59;;;;;;;;;;;23.60;73.10;;;;;;5034323;28;20298;-64
2022/07/02 08:05:25;;;;;;;;;;;23.80;74.30;;;;;;5019664;28;20378;-63
2022/07/02 08:07:51;;;;;;;;;;;23.80;73.60;;;;;;5017803;28;19914;-64
2022/07/02 08:10:16;;;;;;;;;;;23.80;74.00;;;;;;5034835;28;19956;-64
2022/07/02 08:12:42;;;;;;;;;;;23.90;74.50;;;;;;5028403;28;20358;-64
2022/07/02 08:15:08;;;;;;;;;;;24.00;76.70;;;;;;5027931;28;20271;-64
2022/07/02 08:17:34;;;;;;;;;;;24.20;80.60;;;;;;5028128;28;20378;-63
2022/07/02 08:19:59;;;;;;;;;;;24.30;84.00;;;;;;5028979;28;19975;-64
2022/07/02 08:22:25;;;;;;;;;;;24.50;90.60;;;;;;5026667;28;19917;-64
2022/07/02 08:24:51;;;;;;;;;;;24.30;95.60;;;;;;5026766;28;19951;-64
2022/07/02 08:27:16;;;;;;;;;;;24.30;93.50;;;;;;5028497;28;20354;-64
2022/07/02 08:29:42;;;;;;;;;;;24.50;91.50;;;;;;5026430;28;19913;-70
2022/07/02 08:32:07;;;;;;;;;;;24.60;92.80;;;;;;5013339;28;19917;-69
2022/07/02 08:34:33;;;;;;;;;;;24.70;93.10;;;;;;5031956;28;20000;-74
2022/07/02 08:36:59;;;;;;;;;;;24.60;90.40;;;;;;5028297;28;20309;-74
2022/07/02 08:39:25;;;;;;;;;;;;;;;;;;5028607;28;19967;-74
2022/07/02 08:41:52;;;;;;;;;;;24.70;84.30;;;;;;5027981;28;19968;-74
2022/07/02 08:44:20;;;;;;;;;;;24.60;87.20;;;;;;5028279;28;20336;-73
2022/07/02 08:46:46;;;;;;;;;;;24.80;87.60;;;;;;5030104;28;20263;-73
2022/07/02 08:49:12;;;;;;;;;;;24.70;89.50;;;;;;5030912;28;19913;-73
2022/07/02 08:51:39;;;;;;;;;;;25.00;86.90;;;;;;5029388;28;19917;-73
2022/07/02 08:54:05;;;;;;;;;;;24.90;87.30;;;;;;5028256;28;19917;-74
2022/07/02 08:56:31;;;;;;;;;;;25.30;88.50;;;;;;5029146;28;19925;-73
2022/07/02 08:58:57;;;;;;;;;;;;;;;;;;5030072;28;20365;-74
2022/07/02 09:01:23;;;;;;;;;;;26.00;93.80;;;;;;5029899;28;19917;-73
2022/07/02 09:03:49;;;;;;;;;;;25.60;76.40;;;;;;5026916;28;20281;-74
2022/07/02 09:06:16;;;;;;;;;;;25.30;70.20;;;;;;5027561;28;19913;-74
2022/07/02 09:08:42;;;;;;;;;;;25.40;69.30;;;;;;5022217;28;19913;-72
2022/07/02 09:11:08;;;;;;;;;;;25.50;68.80;;;;;;5012331;28;19939;-73
2022/07/02 09:13:34;;;;;;;;;;;25.60;67.90;;;;;;5031383;28;19909;-74
2022/07/02 09:15:59;;;;;;;;;;;25.50;68.60;;;;;;5027946;28;19921;-74
2022/07/02 09:18:25;;;;;;;;;;;25.70;68.40;;;;;;5027921;28;19923;-74
2022/07/02 09:20:50;;;;;;;;;;;25.80;67.60;;;;;;5028313;28;19961;-74
2022/07/02 09:23:20;;;;;;;;;;;25.80;68.00;;;;;;5026706;28;19913;-73
2022/07/02 09:25:47;;;;;;;;;;;25.90;70.80;;;;;;5026361;28;19917;-73
2022/07/02 09:28:13;;;;;;;;;;;;;;;;;;5031259;28;19952;-73
2022/07/02 09:30:39;;;;;;;;;;;26.00;66.50;;;;;;5026686;28;19968;-73
2022/07/02 09:33:35;;;;;;;;;;;26.00;67.10;;;;;;5024292;28;19960;-73
2022/07/02 09:36:10;;;;;;;;;;;26.00;66.20;;;;;;5021937;28;19917;-73
2022/07/02 09:38:46;;;;;;;;;;;25.90;67.40;;;;;;5025547;28;19932;-74
2022/07/02 09:41:13;;;;;;;;;;;26.20;66.70;;;;;;5028070;28;19917;-74
2022/07/02 09:43:38;;;;;;;;;;;26.40;66.10;;;;;;5034243;28;19955;-74
2022/07/02 09:46:24;;;;;;;;;;;26.30;66.30;;;;;;5033423;28;19914;-74
2022/07/02 09:48:50;;;;;;;;;;;26.20;66.20;;;;;;5032407;28;19921;-74
2022/07/02 09:51:16;;;;;;;;;;;26.60;66.40;;;;;;5033493;28;20301;-77
2022/07/02 09:53:51;;;;;;;;;;;26.70;66.00;;;;;;5030895;28;20444;-75
2022/07/02 09:56:18;;;;;;;;;;;26.80;65.20;;;;;;5018619;28;19920;-75
2022/07/02 09:58:43;;;;;;;;;;;26.60;66.00;;;;;;5033335;28;19923;-76
2022/07/02 10:01:09;;;;;;;;;;;;;;;;;;5032737;28;19917;-74
2022/07/02 10:03:45;;;;;;;;;;;26.80;64.70;;;;;;5027780;28;19959;-71
2022/07/02 10:06:11;;;;;;;;;;;;;;;;;;5032672;28;20378;-70
2022/07/02 10:08:37;;;;;;;;;;;;;;;;;;5032504;28;19916;-70
2022/07/02 10:11:03;;;;;;;;;;;;;;;;;;5033134;28;19913;-72
2022/07/02 10:13:29;;;;;;;;;;;;;;;;;;5033161;28;19909;-70
2022/07/02 10:15:55;;;;;;;;;;;;;;;;;;5032241;28;20389;-71
2022/07/02 10:18:20;;;;;;;;;;;;;;;;;;5026833;28;19914;-70
2022/07/02 10:20:48;;;;;;;;;;;;;;;;;;5021018;28;20207;-71
2022/07/02 10:23:14;;;;;;;;;;;;;;;;;;5032221;28;19914;-71
2022/07/02 10:25:41;;;;;;;;;;;;;;;;;;5032661;28;19909;-72
2022/07/02 10:28:07;;;;;;;;;;;;;;;;;;5032204;28;19959;-71
2022/07/02 10:30:33;;;;;;;;;;;;;;;;;;5031725;28;19956;-71
2022/07/02 10:32:59;;;;;;;;;;;;;;;;;;5028823;28;19949;-68
2022/07/02 10:35:25;;;;;;;;;;;;;;;;;;5018048;28;19917;-76
2022/07/02 10:37:51;;;;;;;;;;;;;;;;;;5031808;28;19923;-74
2022/07/02 10:40:17;;;;;;;;;;;;;;;;;;5031869;28;19913;-72
2022/07/02 10:42:44;;;;;;;;;;;;;;;;;;5031550;28;19925;-70
2022/07/02 10:45:10;;;;;;;;;;;;;;;;;;5031235;28;19925;-70
2022/07/02 10:47:36;;;;;;;;;;;;;;;;;;5030989;28;19913;-70
2022/07/02 10:50:02;;;;;;;;;;;;;;;;;;5031923;28;19928;-82
2022/07/02 10:52:28;;;;;;;;;;;;;;;;;;5032587;28;20378;-71
2022/07/02 10:54:54;;;;;;;;;;;;;;;;;;5029778;28;20298;-71
2022/07/02 10:57:20;;;;;;;;;;;;;;;;;;5026668;28;19922;-71
2022/07/02 10:59:46;;;;;;;;;;;;;;;;;;5020718;28;19914;-68
2022/07/02 11:02:15;;;;;;;;;;;;;;;;;;5031553;28;19924;-69
2022/07/02 11:04:41;;;;;;;;;;;;;;;;;;5032528;28;20400;-74
2022/07/02 11:07:07;;;;;;;;;;;;;;;;;;5031923;28;19941;-74
2022/07/02 11:09:32;;;;;;;;;;;;;;;;;;5031335;28;19914;-74
2022/07/02 11:11:58;;;;;;;;;;;;;;;;;;5030821;28;20413;-76
2022/07/02 11:14:26;;;;;;;;;;;;;;;;;;5030551;28;20117;-73
2022/07/02 11:16:52;;;;;;;;;;;;;;;;;;5018981;28;19921;-76
2022/07/02 11:19:18;;;;;;;;;;;;;;;;;;5030968;28;20396;-77
2022/07/02 11:21:44;;;;;;;;;;;;;;;;;;5031235;28;19925;-76
2022/07/02 11:24:12;;;;;;;;;;;;;;;;;;5031266;28;19975;-76
2022/07/02 11:26:38;;;;;;;;;;;;;;;;;;5031197;28;19909;-76
2022/07/02 11:29:04;;;;;;;;;;;;;;;;;;5031004;28;19991;-74
2022/07/02 11:31:31;;;;;;;;;;;;;;;;;;5031310;28;20354;-73
2022/07/02 11:33:57;;;;;;;;;;;;;;;;;;5029680;28;20007;-73
2022/07/02 11:36:23;;;;;;;;;;;;;;;;;;5026247;28;20004;-72
2022/07/02 11:38:50;;;;;;;;;;;;;;;;;;5020723;28;19917;-73
2022/07/02 11:41:16;;;;;;;;;;;;;;;;;;5030303;28;20306;-69
2022/07/02 11:43:44;;;;;;;;;;;;;;;;;;5028837;28;19917;-77
2022/07/02 11:46:10;;;;;;;;;;;;;;;;;;5019373;28;20296;-79
2022/07/02 11:48:36;;;;;;;;;;;;;;;;;;5026778;28;19909;-85
2022/07/02 11:51:01;;;;;;;;;;;;;;;;;;5031455;28;19913;-75
2022/07/02 11:53:27;;;;;;;;;;;;;;;;;;5030578;28;19909;-66
2022/07/02 11:55:53;;;;;;;;;;;;;;;;;;5014896;28;19917;-74
2022/07/02 11:58:19;;;;;;;;;;;;;;;;;;5031068;28;19913;-86
2022/07/02 12:00:45;;;;;;;;;;;;;;;;;;5031154;28;19913;-77
2022/07/02 12:03:11;;;;;;;;;;;;;;;;;;5025710;28;19917;-87
2022/07/02 12:05:37;;;;;;;;;;;;;;;;;;5031094;28;19919;-86
2022/07/02 12:08:04;;;;;;;;;;;;;;;;;;5031332;28;19998;-87
2022/07/02 12:10:30;;;;;;;;;;;;;;;;;;5031767;28;19916;-86
2022/07/02 12:12:55;;;;;;;;;;;;;;;;;;5026642;28;20290;-85
2022/07/02 12:15:21;;;;;;;;;;;;;;;;;;5028060;28;19920;-85
2022/07/02 12:17:47;;;;;;;;;;;;;;;;;;5026667;28;19925;-85
2022/07/02 12:20:13;;;;;;;;;;;;;;;;;;5031031;28;19921;-84
2022/07/02 12:22:40;;;;;;;;;;;;;;;;;;5016313;28;19910;-72
2022/07/02 12:25:06;;;;;;;;;;;;;;;;;;5026231;28;19914;-80
2022/07/02 12:27:34;;;;;;;;;;;;;;;;;;5029012;28;19913;-77
2022/07/02 12:30:04;;;;;;;;;;;;;;;;;;5030595;28;19921;-80
2022/07/02 12:32:32;;;;;;;;;;;;;;;;;;5031609;28;20386;-71
2022/07/02 12:34:58;;;;;;;;;;;;;;;;;;5016138;28;19914;-74
2022/07/02 12:37:24;;;;;;;;;;;;;;;;;;5033686;28;19928;-83
2022/07/02 12:39:50;;;;;;;;;;;;;;;;;;5033748;28;20451;-83
2022/07/02 12:42:16;;;;;;;;;;;;;;;;;;5033508;28;19928;-83
2022/07/02 12:44:42;;;;;;;;;;;;;;;;;;5035053;28;19917;-82
2022/07/02 12:47:11;;;;;;;;;;;;;;;;;;5034189;28;19919;-82
2022/07/02 12:49:37;;;;;;;;;;;;;;;;;;5034460;28;19963;-82
2022/07/02 12:52:03;;;;;;;;;;;;;;;;;;5033907;28;19917;-82
2022/07/02 12:54:29;;;;;;;;;;;;;;;;;;5028081;28;20386;-82
2022/07/02 12:56:55;;;;;;;;;;;;;;;;;;5023844;28;20008;-83
2022/07/02 12:59:21;;;;;;;;;;;;;;;;;;5033933;28;20453;-84
2022/07/02 13:01:46;;;;;;;;;;;;;;;;;;5033594;28;20388;-83
2022/07/02 13:04:12;;;;;;;;;;;;;;;;;;5034606;28;19917;-83
2022/07/02 13:06:38;;;;;;;;;;;;;;;;;;5034168;28;19913;-82
2022/07/02 13:09:04;;;;;;;;;;;;;;;;;;5033936;28;19917;-83
2022/07/02 13:11:31;;;;;;;;;;;;;;;;;;5029505;28;19959;-63
2022/07/02 13:13:57;;;;;;;;;;;;;;;;;;5030640;28;19914;-81
2022/07/02 13:16:23;;;;;;;;;;;;;;;;;;5034343;28;20028;-81
2022/07/02 13:18:49;;;;;;;;;;;;;;;;;;5033193;28;19946;-80
2022/07/02 13:21:15;;;;;;;;;;;;;;;;;;5033087;28;19920;-66
2022/07/02 13:23:41;;;;;;;;;;;;;;;;;;5034149;28;19920;-66
2022/07/02 13:26:07;;;;;;;;;;;;;;;;;;5028977;28;19936;-74
2022/07/02 13:28:33;;;;;;;;;;;;;;;;;;5034184;28;20285;-74
2022/07/02 13:30:59;;;;;;;;;;;;;;;;;;5033642;28;19913;-74
2022/07/02 13:33:25;;;;;;;;;;;;;;;;;;5028167;28;19913;-74
2022/07/02 13:35:50;;;;;;;;;;;;;;;;;;5023466;28;19913;-74
2022/07/02 13:38:16;;;;;;;;;;;;;;;;;;5033441;28;20428;-74
2022/07/02 13:40:42;;;;;;;;;;;;;;;;;;5033593;28;19979;-74
2022/07/02 13:43:08;;;;;;;;;;;;;;;;;;5033366;28;19936;-74
2022/07/02 13:45:34;;;;;;;;;;;;;;;;;;5033880;28;19937;-74
2022/07/02 13:48:00;;;;;;;;;;;;;;;;;;5032849;28;20447;-73
2022/07/02 13:50:26;;;;;;;;;;;;;;;;;;5033228;28;19920;-74
2022/07/02 13:52:52;;;;;;;;;;;;;;;;;;5033669;28;19920;-73
2022/07/02 13:55:18;;;;;;;;;;;;;;;;;;5033034;28;19913;-73
2022/07/02 13:57:44;;;;;;;;;;;;;;;;;;5032946;28;19929;-74
2022/07/02 14:00:10;;;;;;;;;;;;;;;;;;5028586;28;19914;-73
2022/07/02 14:02:36;;;;;;;;;;;;;;;;;;5020432;28;19913;-74
2022/07/02 14:05:02;;;;;;;;;;;;;;;;;;5032681;28;24493;-73
2022/07/02 14:07:27;;;;;;;;;;;;;;;;;;5033187;28;19917;-73
2022/07/02 14:09:53;;;;;;;;;;;;;;;;;;5032164;28;19917;-73
2022/07/02 14:12:19;;;;;;;;;;;;;;;;;;5028012;28;19919;-73
2022/07/02 14:14:45;;;;;;;;;;;;;;;;;;5027254;28;19913;-73
2022/07/02 14:17:11;;;;;;;;;;;;;;;;;;5030756;28;20314;-74
2022/07/02 14:19:37;;;;;;;;;;;;;;;;;;5031091;28;19913;-73
2022/07/02 14:22:03;;;;;;;;;;;;;;;;;;5032454;28;20349;-73
2022/07/02 14:24:29;;;;;;;;;;;;;;;;;;5032102;28;19913;-73
2022/07/02 14:26:55;;;;;;;;;;;;;;;;;;5032566;28;19913;-73
2022/07/02 14:29:21;;;;;;;;;;;;;;;;;;5027225;28;19960;-74
2022/07/02 14:31:49;;;;;;;;;;;;;;;;;;5032298;28;20267;-73
2022/07/02 14:34:17;;;;;;;;;;;;;;;;;;5031156;28;20016;-73
2022/07/02 14:36:44;;;;;;;;;;;;;;;;;;5032132;28;19921;-73
2022/07/02 14:39:09;;;;;;;;;;;;;;;;;;5032248;28;20370;-73
2022/07/02 14:41:36;;;;;;;;;;;;;;;;;;5032362;28;19956;-73
2022/07/02 14:44:02;;;;;;;;;;;;;;;;;;5032280;28;19915;-73
2022/07/02 14:46:31;;;;;;;;;;;;;;;;;;5032664;28;20000;-73
2022/07/02 14:48:57;;;;;;;;;;;;;;;;;;5020600;28;20016;-74
2022/07/02 14:51:22;;;;;;;;;;;;;;;;;;5025566;28;19999;-74
2022/07/02 14:53:48;;;;;;;;;;;;;;;;;;5022440;28;20035;-75
2022/07/02 14:56:15;;;;;;;;;;;;;;;;;;5025623;28;20376;-62
2022/07/02 14:58:41;;;;;;;;;;;;;;;;;;5014446;28;19979;-71
2022/07/02 15:01:06;;;;;;;;;;;;;;;;;;5026856;28;21002;-71
2022/07/02 15:03:32;;;;;;;;;;;;;;;;;;5025074;28;19917;-72